Nelsonville, Wisconsin
Current Conditions -  °F | °C
As of 10:15 PM on Thursday 27 Nov 2014 (Local Time) from KSTE Reporting Station
Clear Clear  
Wind Chill: -22°   Ceiling: Unl
Heat Index: -22°   Visibility: 10mi
Dew Point: -24°   Wind: 0mph
Humidity: 84%   Direction: NA
Pressure: 30.32"   Gusts: NA
Location:  44.49°N, 89.31°W
Report Text: KSTE 280415Z AUTO 00000KT 10SM CLR M21/M23 A3032 RMK AO2 T12151235
Loading
Personal Weather Stations






























Interactive Weather Map New forecast layout! Learn more

10-Day Weather Forecast

Advertisements
Track Severe Weather on mobile